sensor_id;sensor_type;location;lat;lon;timestamp;P1;durP1;ratioP1;P2;durP2;ratioP2
68216;SDS011;55037;52.354;4.992;2022-08-19T00:01:54;12.97;;;8.63;;
68216;SDS011;55037;52.354;4.992;2022-08-19T00:04:26;12.27;;;8.60;;
68216;SDS011;55037;52.354;4.992;2022-08-19T00:06:58;11.55;;;8.48;;
68216;SDS011;55037;52.354;4.992;2022-08-19T00:09:26;11.93;;;9.00;;
68216;SDS011;55037;52.354;4.992;2022-08-19T00:11:53;12.30;;;8.20;;
68216;SDS011;55037;52.354;4.992;2022-08-19T00:14:22;14.13;;;8.63;;
68216;SDS011;55037;52.354;4.992;2022-08-19T00:16:51;12.68;;;8.48;;
68216;SDS011;55037;52.354;4.992;2022-08-19T00:19:21;11.85;;;8.77;;
68216;SDS011;55037;52.354;4.992;2022-08-19T00:21:49;12.80;;;8.48;;
68216;SDS011;55037;52.354;4.992;2022-08-19T00:24:17;14.43;;;9.10;;
68216;SDS011;55037;52.354;4.992;2022-08-19T00:26:45;13.40;;;8.63;;
68216;SDS011;55037;52.354;4.992;2022-08-19T00:29:14;14.67;;;9.40;;
68216;SDS011;55037;52.354;4.992;2022-08-19T00:31:42;12.77;;;9.55;;
68216;SDS011;55037;52.354;4.992;2022-08-19T00:34:10;13.07;;;9.00;;
68216;SDS011;55037;52.354;4.992;2022-08-19T00:36:40;10.75;;;8.45;;
68216;SDS011;55037;52.354;4.992;2022-08-19T00:39:08;11.00;;;8.35;;
68216;SDS011;55037;52.354;4.992;2022-08-19T00:41:36;12.53;;;8.37;;
68216;SDS011;55037;52.354;4.992;2022-08-19T00:44:08;13.00;;;8.60;;
68216;SDS011;55037;52.354;4.992;2022-08-19T00:46:37;11.63;;;8.63;;
68216;SDS011;55037;52.354;4.992;2022-08-19T00:49:09;15.23;;;9.90;;
68216;SDS011;55037;52.354;4.992;2022-08-19T00:51:41;17.67;;;10.13;;
68216;SDS011;55037;52.354;4.992;2022-08-19T00:54:11;16.73;;;10.80;;
68216;SDS011;55037;52.354;4.992;2022-08-19T00:56:38;16.23;;;11.00;;
68216;SDS011;55037;52.354;4.992;2022-08-19T00:59:07;16.42;;;11.07;;
68216;SDS011;55037;52.354;4.992;2022-08-19T01:01:36;20.38;;;11.40;;
68216;SDS011;55037;52.354;4.992;2022-08-19T01:04:05;14.77;;;11.25;;
68216;SDS011;55037;52.354;4.992;2022-08-19T01:06:33;17.50;;;11.63;;
68216;SDS011;55037;52.354;4.992;2022-08-19T01:09:01;16.60;;;11.27;;
68216;SDS011;55037;52.354;4.992;2022-08-19T01:11:30;18.13;;;11.35;;
68216;SDS011;55037;52.354;4.992;2022-08-19T01:13:59;17.00;;;11.50;;
68216;SDS011;55037;52.354;4.992;2022-08-19T01:16:27;18.48;;;11.57;;
68216;SDS011;55037;52.354;4.992;2022-08-19T01:18:56;16.02;;;11.93;;
68216;SDS011;55037;52.354;4.992;2022-08-19T01:21:43;15.80;;;11.60;;
68216;SDS011;55037;52.354;4.992;2022-08-19T01:24:19;15.50;;;11.40;;
68216;SDS011;55037;52.354;4.992;2022-08-19T01:26:48;16.55;;;11.60;;
68216;SDS011;55037;52.354;4.992;2022-08-19T01:29:16;19.75;;;12.15;;
68216;SDS011;55037;52.354;4.992;2022-08-19T01:31:43;16.48;;;11.93;;
68216;SDS011;55037;52.354;4.992;2022-08-19T01:34:11;17.20;;;11.48;;
68216;SDS011;55037;52.354;4.992;2022-08-19T01:36:40;17.42;;;12.07;;
68216;SDS011;55037;52.354;4.992;2022-08-19T01:39:13;19.13;;;12.20;;
68216;SDS011;55037;52.354;4.992;2022-08-19T01:41:42;18.08;;;12.02;;
68216;SDS011;55037;52.354;4.992;2022-08-19T01:44:10;19.00;;;12.07;;
68216;SDS011;55037;52.354;4.992;2022-08-19T01:46:45;18.33;;;12.48;;
68216;SDS011;55037;52.354;4.992;2022-08-19T01:49:15;20.80;;;13.68;;
68216;SDS011;55037;52.354;4.992;2022-08-19T01:51:44;24.17;;;14.40;;
68216;SDS011;55037;52.354;4.992;2022-08-19T01:54:12;23.60;;;15.60;;
68216;SDS011;55037;52.354;4.992;2022-08-19T01:57:01;27.52;;;16.58;;
68216;SDS011;55037;52.354;4.992;2022-08-19T01:59:34;29.60;;;17.13;;
68216;SDS011;55037;52.354;4.992;2022-08-19T02:02:04;28.75;;;17.70;;
68216;SDS011;55037;52.354;4.992;2022-08-19T02:04:34;28.43;;;18.00;;
68216;SDS011;55037;52.354;4.992;2022-08-19T02:07:04;30.58;;;18.20;;
68216;SDS011;55037;52.354;4.992;2022-08-19T02:09:34;29.73;;;17.88;;
68216;SDS011;55037;52.354;4.992;2022-08-19T02:12:03;28.40;;;17.23;;
68216;SDS011;55037;52.354;4.992;2022-08-19T02:14:30;29.38;;;17.83;;
68216;SDS011;55037;52.354;4.992;2022-08-19T02:17:00;30.02;;;17.88;;
68216;SDS011;55037;52.354;4.992;2022-08-19T02:19:27;26.40;;;17.23;;
68216;SDS011;55037;52.354;4.992;2022-08-19T02:21:57;26.77;;;16.88;;
68216;SDS011;55037;52.354;4.992;2022-08-19T02:24:25;25.30;;;16.63;;
68216;SDS011;55037;52.354;4.992;2022-08-19T02:26:53;26.85;;;17.20;;
68216;SDS011;55037;52.354;4.992;2022-08-19T02:29:20;29.27;;;17.90;;
68216;SDS011;55037;52.354;4.992;2022-08-19T02:31:48;27.70;;;17.47;;
68216;SDS011;55037;52.354;4.992;2022-08-19T02:34:16;30.37;;;17.33;;
68216;SDS011;55037;52.354;4.992;2022-08-19T02:36:43;30.02;;;18.02;;
68216;SDS011;55037;52.354;4.992;2022-08-19T02:39:17;26.88;;;17.08;;
68216;SDS011;55037;52.354;4.992;2022-08-19T02:41:45;25.20;;;16.98;;
68216;SDS011;55037;52.354;4.992;2022-08-19T02:44:12;26.90;;;16.40;;
68216;SDS011;55037;52.354;4.992;2022-08-19T02:46:57;26.02;;;15.93;;
68216;SDS011;55037;52.354;4.992;2022-08-19T02:49:24;26.23;;;16.27;;
68216;SDS011;55037;52.354;4.992;2022-08-19T02:51:51;25.27;;;16.33;;
68216;SDS011;55037;52.354;4.992;2022-08-19T02:54:19;22.50;;;15.80;;
68216;SDS011;55037;52.354;4.992;2022-08-19T02:56:46;26.07;;;15.80;;
68216;SDS011;55037;52.354;4.992;2022-08-19T02:59:13;25.63;;;16.08;;
68216;SDS011;55037;52.354;4.992;2022-08-19T03:01:40;28.13;;;16.60;;
68216;SDS011;55037;52.354;4.992;2022-08-19T03:04:10;28.55;;;16.88;;
68216;SDS011;55037;52.354;4.992;2022-08-19T03:06:40;25.35;;;15.80;;
68216;SDS011;55037;52.354;4.992;2022-08-19T03:09:10;24.95;;;16.05;;
68216;SDS011;55037;52.354;4.992;2022-08-19T03:11:38;25.17;;;16.25;;
68216;SDS011;55037;52.354;4.992;2022-08-19T03:14:07;28.30;;;16.90;;
68216;SDS011;55037;52.354;4.992;2022-08-19T03:16:39;25.63;;;16.23;;
68216;SDS011;55037;52.354;4.992;2022-08-19T03:19:12;26.10;;;16.65;;
68216;SDS011;55037;52.354;4.992;2022-08-19T03:21:41;25.42;;;16.45;;
68216;SDS011;55037;52.354;4.992;2022-08-19T03:24:11;27.27;;;16.67;;
68216;SDS011;55037;52.354;4.992;2022-08-19T03:26:43;26.93;;;18.23;;
68216;SDS011;55037;52.354;4.992;2022-08-19T03:29:13;31.73;;;17.67;;
68216;SDS011;55037;52.354;4.992;2022-08-19T03:31:52;27.70;;;17.23;;
68216;SDS011;55037;52.354;4.992;2022-08-19T03:34:24;27.17;;;17.50;;
68216;SDS011;55037;52.354;4.992;2022-08-19T03:36:54;31.67;;;17.55;;
68216;SDS011;55037;52.354;4.992;2022-08-19T03:39:23;29.50;;;17.27;;
68216;SDS011;55037;52.354;4.992;2022-08-19T03:41:52;27.70;;;16.77;;
68216;SDS011;55037;52.354;4.992;2022-08-19T03:44:43;29.58;;;17.35;;
68216;SDS011;55037;52.354;4.992;2022-08-19T03:47:11;28.88;;;17.95;;
68216;SDS011;55037;52.354;4.992;2022-08-19T03:49:43;27.55;;;17.20;;
68216;SDS011;55037;52.354;4.992;2022-08-19T03:52:10;28.57;;;17.80;;
68216;SDS011;55037;52.354;4.992;2022-08-19T03:54:38;31.03;;;17.50;;
68216;SDS011;55037;52.354;4.992;2022-08-19T03:57:05;28.75;;;17.45;;
68216;SDS011;55037;52.354;4.992;2022-08-19T03:59:35;29.60;;;17.80;;
68216;SDS011;55037;52.354;4.992;2022-08-19T04:02:06;28.23;;;17.48;;
68216;SDS011;55037;52.354;4.992;2022-08-19T04:04:40;31.58;;;17.73;;
68216;SDS011;55037;52.354;4.992;2022-08-19T04:07:10;31.48;;;18.13;;
68216;SDS011;55037;52.354;4.992;2022-08-19T04:09:42;31.23;;;18.25;;
68216;SDS011;55037;52.354;4.992;2022-08-19T04:12:09;33.47;;;19.38;;
68216;SDS011;55037;52.354;4.992;2022-08-19T04:14:36;31.38;;;19.40;;
68216;SDS011;55037;52.354;4.992;2022-08-19T04:17:04;34.15;;;20.15;;
68216;SDS011;55037;52.354;4.992;2022-08-19T04:19:32;30.98;;;19.42;;
68216;SDS011;55037;52.354;4.992;2022-08-19T04:22:01;35.83;;;20.23;;
68216;SDS011;55037;52.354;4.992;2022-08-19T04:24:29;35.35;;;20.92;;
68216;SDS011;55037;52.354;4.992;2022-08-19T04:26:58;35.80;;;20.73;;
68216;SDS011;55037;52.354;4.992;2022-08-19T04:29:27;35.77;;;20.90;;
68216;SDS011;55037;52.354;4.992;2022-08-19T04:31:55;38.03;;;20.67;;
68216;SDS011;55037;52.354;4.992;2022-08-19T04:34:24;42.47;;;21.88;;
68216;SDS011;55037;52.354;4.992;2022-08-19T04:36:53;38.13;;;20.98;;
68216;SDS011;55037;52.354;4.992;2022-08-19T04:39:24;40.85;;;21.48;;
68216;SDS011;55037;52.354;4.992;2022-08-19T04:42:17;40.47;;;22.17;;
68216;SDS011;55037;52.354;4.992;2022-08-19T04:45:03;37.38;;;21.23;;
68216;SDS011;55037;52.354;4.992;2022-08-19T04:47:39;43.33;;;22.53;;
68216;SDS011;55037;52.354;4.992;2022-08-19T04:50:25;44.60;;;23.48;;
68216;SDS011;55037;52.354;4.992;2022-08-19T04:52:52;45.97;;;24.45;;
68216;SDS011;55037;52.354;4.992;2022-08-19T04:55:22;47.08;;;24.52;;
68216;SDS011;55037;52.354;4.992;2022-08-19T04:57:52;47.63;;;24.52;;
68216;SDS011;55037;52.354;4.992;2022-08-19T05:00:20;47.47;;;24.67;;
68216;SDS011;55037;52.354;4.992;2022-08-19T05:02:48;49.38;;;24.85;;
68216;SDS011;55037;52.354;4.992;2022-08-19T05:05:16;47.72;;;24.98;;
68216;SDS011;55037;52.354;4.992;2022-08-19T05:07:43;49.05;;;25.45;;
68216;SDS011;55037;52.354;4.992;2022-08-19T05:10:10;49.83;;;25.55;;
68216;SDS011;55037;52.354;4.992;2022-08-19T05:12:38;50.90;;;25.48;;
68216;SDS011;55037;52.354;4.992;2022-08-19T05:15:06;54.58;;;26.77;;
68216;SDS011;55037;52.354;4.992;2022-08-19T05:17:35;54.80;;;25.67;;
68216;SDS011;55037;52.354;4.992;2022-08-19T05:20:05;52.72;;;25.58;;
68216;SDS011;55037;52.354;4.992;2022-08-19T05:22:51;55.83;;;27.42;;
68216;SDS011;55037;52.354;4.992;2022-08-19T05:25:20;53.55;;;25.90;;
68216;SDS011;55037;52.354;4.992;2022-08-19T05:27:48;53.07;;;27.10;;
68216;SDS011;55037;52.354;4.992;2022-08-19T05:30:16;50.72;;;26.33;;
68216;SDS011;55037;52.354;4.992;2022-08-19T05:32:50;53.83;;;26.45;;
68216;SDS011;55037;52.354;4.992;2022-08-19T05:35:20;50.45;;;25.63;;
68216;SDS011;55037;52.354;4.992;2022-08-19T05:37:49;47.13;;;25.30;;
68216;SDS011;55037;52.354;4.992;2022-08-19T05:40:24;50.93;;;24.50;;
68216;SDS011;55037;52.354;4.992;2022-08-19T05:42:52;52.85;;;25.35;;
68216;SDS011;55037;52.354;4.992;2022-08-19T05:45:21;51.97;;;25.93;;
68216;SDS011;55037;52.354;4.992;2022-08-19T05:47:48;53.50;;;27.10;;
68216;SDS011;55037;52.354;4.992;2022-08-19T05:50:15;56.40;;;27.20;;
68216;SDS011;55037;52.354;4.992;2022-08-19T05:52:44;57.40;;;27.67;;
68216;SDS011;55037;52.354;4.992;2022-08-19T05:55:16;55.28;;;28.65;;
68216;SDS011;55037;52.354;4.992;2022-08-19T05:57:46;56.90;;;28.38;;
68216;SDS011;55037;52.354;4.992;2022-08-19T06:00:14;56.30;;;28.45;;
68216;SDS011;55037;52.354;4.992;2022-08-19T06:02:41;57.40;;;28.40;;
68216;SDS011;55037;52.354;4.992;2022-08-19T06:05:08;58.38;;;29.02;;
68216;SDS011;55037;52.354;4.992;2022-08-19T06:07:37;61.53;;;28.55;;
68216;SDS011;55037;52.354;4.992;2022-08-19T06:10:07;54.88;;;27.90;;
68216;SDS011;55037;52.354;4.992;2022-08-19T06:12:37;58.70;;;29.23;;
68216;SDS011;55037;52.354;4.992;2022-08-19T06:15:06;66.85;;;30.13;;
68216;SDS011;55037;52.354;4.992;2022-08-19T06:17:37;65.25;;;29.08;;
68216;SDS011;55037;52.354;4.992;2022-08-19T06:20:05;65.50;;;29.15;;
68216;SDS011;55037;52.354;4.992;2022-08-19T06:22:43;67.20;;;30.88;;
68216;SDS011;55037;52.354;4.992;2022-08-19T06:25:11;70.93;;;31.23;;
68216;SDS011;55037;52.354;4.992;2022-08-19T06:27:40;76.43;;;31.87;;
68216;SDS011;55037;52.354;4.992;2022-08-19T06:30:28;77.60;;;32.35;;
68216;SDS011;55037;52.354;4.992;2022-08-19T06:32:56;81.18;;;33.35;;
68216;SDS011;55037;52.354;4.992;2022-08-19T06:35:23;85.80;;;34.15;;
68216;SDS011;55037;52.354;4.992;2022-08-19T06:37:52;80.30;;;30.75;;
68216;SDS011;55037;52.354;4.992;2022-08-19T06:40:20;85.23;;;35.00;;
68216;SDS011;55037;52.354;4.992;2022-08-19T06:42:47;91.40;;;34.65;;
68216;SDS011;55037;52.354;4.992;2022-08-19T06:45:21;90.65;;;34.35;;
68216;SDS011;55037;52.354;4.992;2022-08-19T06:47:51;92.47;;;34.95;;
68216;SDS011;55037;52.354;4.992;2022-08-19T06:50:23;81.07;;;31.15;;
68216;SDS011;55037;52.354;4.992;2022-08-19T06:52:50;87.55;;;34.40;;
68216;SDS011;55037;52.354;4.992;2022-08-19T06:55:18;88.13;;;33.53;;
68216;SDS011;55037;52.354;4.992;2022-08-19T06:57:46;79.80;;;32.40;;
68216;SDS011;55037;52.354;4.992;2022-08-19T07:00:15;82.03;;;32.90;;
68216;SDS011;55037;52.354;4.992;2022-08-19T07:02:43;82.38;;;32.40;;
68216;SDS011;55037;52.354;4.992;2022-08-19T07:05:21;78.68;;;32.78;;
68216;SDS011;55037;52.354;4.992;2022-08-19T07:07:48;83.50;;;34.33;;
68216;SDS011;55037;52.354;4.992;2022-08-19T07:10:17;78.82;;;32.88;;
68216;SDS011;55037;52.354;4.992;2022-08-19T07:12:45;67.00;;;30.23;;
68216;SDS011;55037;52.354;4.992;2022-08-19T07:15:13;76.95;;;31.48;;
68216;SDS011;55037;52.354;4.992;2022-08-19T07:17:41;76.13;;;31.23;;
68216;SDS011;55037;52.354;4.992;2022-08-19T07:20:10;73.05;;;29.65;;
68216;SDS011;55037;52.354;4.992;2022-08-19T07:22:38;72.30;;;30.17;;
68216;SDS011;55037;52.354;4.992;2022-08-19T07:25:07;74.68;;;32.03;;
68216;SDS011;55037;52.354;4.992;2022-08-19T07:27:35;64.18;;;28.42;;
68216;SDS011;55037;52.354;4.992;2022-08-19T07:30:06;61.57;;;29.27;;
68216;SDS011;55037;52.354;4.992;2022-08-19T07:32:38;66.10;;;29.38;;
68216;SDS011;55037;52.354;4.992;2022-08-19T07:35:06;68.00;;;30.20;;
68216;SDS011;55037;52.354;4.992;2022-08-19T07:37:34;66.45;;;29.58;;
68216;SDS011;55037;52.354;4.992;2022-08-19T07:40:04;66.80;;;30.17;;
68216;SDS011;55037;52.354;4.992;2022-08-19T07:42:33;64.30;;;29.92;;
68216;SDS011;55037;52.354;4.992;2022-08-19T07:45:00;68.00;;;29.98;;
68216;SDS011;55037;52.354;4.992;2022-08-19T07:47:28;60.00;;;28.55;;
68216;SDS011;55037;52.354;4.992;2022-08-19T07:50:15;59.65;;;28.10;;
68216;SDS011;55037;52.354;4.992;2022-08-19T07:52:46;64.78;;;28.67;;
68216;SDS011;55037;52.354;4.992;2022-08-19T07:55:17;54.65;;;26.35;;
68216;SDS011;55037;52.354;4.992;2022-08-19T07:58:07;54.85;;;26.63;;
68216;SDS011;55037;52.354;4.992;2022-08-19T08:00:35;54.70;;;25.93;;
68216;SDS011;55037;52.354;4.992;2022-08-19T08:03:02;48.22;;;24.48;;
68216;SDS011;55037;52.354;4.992;2022-08-19T08:05:30;44.08;;;23.00;;
68216;SDS011;55037;52.354;4.992;2022-08-19T08:08:16;39.65;;;20.58;;
68216;SDS011;55037;52.354;4.992;2022-08-19T08:11:03;41.10;;;21.50;;
68216;SDS011;55037;52.354;4.992;2022-08-19T08:13:34;37.85;;;20.08;;
68216;SDS011;55037;52.354;4.992;2022-08-19T08:16:02;38.93;;;21.60;;
68216;SDS011;55037;52.354;4.992;2022-08-19T08:18:29;37.70;;;20.35;;
68216;SDS011;55037;52.354;4.992;2022-08-19T08:20:57;36.15;;;19.70;;
68216;SDS011;55037;52.354;4.992;2022-08-19T08:23:25;31.65;;;17.58;;
68216;SDS011;55037;52.354;4.992;2022-08-19T08:25:54;32.00;;;18.92;;
68216;SDS011;55037;52.354;4.992;2022-08-19T08:28:24;33.97;;;19.80;;
68216;SDS011;55037;52.354;4.992;2022-08-19T08:30:55;33.78;;;19.30;;
68216;SDS011;55037;52.354;4.992;2022-08-19T08:33:24;35.47;;;19.42;;
68216;SDS011;55037;52.354;4.992;2022-08-19T08:36:01;35.42;;;19.30;;
68216;SDS011;55037;52.354;4.992;2022-08-19T08:38:31;32.40;;;17.88;;
68216;SDS011;55037;52.354;4.992;2022-08-19T08:41:14;33.83;;;16.88;;
68216;SDS011;55037;52.354;4.992;2022-08-19T08:43:54;29.42;;;16.23;;
68216;SDS011;55037;52.354;4.992;2022-08-19T08:51:46;25.10;;;14.52;;
68216;SDS011;55037;52.354;4.992;2022-08-19T08:54:28;23.73;;;14.05;;
68216;SDS011;55037;52.354;4.992;2022-08-19T08:59:51;23.20;;;11.65;;
68216;SDS011;55037;52.354;4.992;2022-08-19T09:02:21;22.75;;;12.48;;
68216;SDS011;55037;52.354;4.992;2022-08-19T09:04:48;21.10;;;12.57;;
68216;SDS011;55037;52.354;4.992;2022-08-19T09:07:25;19.40;;;11.35;;
68216;SDS011;55037;52.354;4.992;2022-08-19T09:10:23;23.70;;;12.50;;
68216;SDS011;55037;52.354;4.992;2022-08-19T09:15:54;22.67;;;11.27;;
68216;SDS011;55037;52.354;4.992;2022-08-19T09:18:44;19.38;;;10.40;;
68216;SDS011;55037;52.354;4.992;2022-08-19T09:21:20;15.65;;;9.18;;
68216;SDS011;55037;52.354;4.992;2022-08-19T09:23:56;16.63;;;9.50;;
68216;SDS011;55037;52.354;4.992;2022-08-19T09:26:26;16.63;;;9.48;;
68216;SDS011;55037;52.354;4.992;2022-08-19T09:29:13;17.92;;;10.45;;
68216;SDS011;55037;52.354;4.992;2022-08-19T09:31:40;18.33;;;9.15;;
68216;SDS011;55037;52.354;4.992;2022-08-19T09:34:07;14.70;;;7.78;;
68216;SDS011;55037;52.354;4.992;2022-08-19T09:36:47;15.05;;;7.13;;
68216;SDS011;55037;52.354;4.992;2022-08-19T09:39:21;12.98;;;6.80;;
68216;SDS011;55037;52.354;4.992;2022-08-19T09:41:48;11.98;;;6.10;;
68216;SDS011;55037;52.354;4.992;2022-08-19T09:44:19;12.27;;;6.15;;
68216;SDS011;55037;52.354;4.992;2022-08-19T09:46:47;14.17;;;6.43;;
68216;SDS011;55037;52.354;4.992;2022-08-19T09:49:15;13.52;;;6.55;;
68216;SDS011;55037;52.354;4.992;2022-08-19T09:51:44;11.25;;;6.00;;
68216;SDS011;55037;52.354;4.992;2022-08-19T09:54:17;13.63;;;6.22;;
68216;SDS011;55037;52.354;4.992;2022-08-19T09:56:51;10.93;;;6.10;;
68216;SDS011;55037;52.354;4.992;2022-08-19T09:59:19;9.82;;;6.00;;
68216;SDS011;55037;52.354;4.992;2022-08-19T10:01:47;11.30;;;6.00;;
68216;SDS011;55037;52.354;4.992;2022-08-19T10:04:15;11.52;;;6.10;;
68216;SDS011;55037;52.354;4.992;2022-08-19T10:06:48;11.38;;;6.10;;
68216;SDS011;55037;52.354;4.992;2022-08-19T10:09:21;9.82;;;5.82;;
68216;SDS011;55037;52.354;4.992;2022-08-19T10:12:00;10.02;;;5.90;;
68216;SDS011;55037;52.354;4.992;2022-08-19T10:14:28;11.70;;;5.95;;
68216;SDS011;55037;52.354;4.992;2022-08-19T10:16:56;11.40;;;6.00;;
68216;SDS011;55037;52.354;4.992;2022-08-19T10:19:25;11.60;;;6.00;;
68216;SDS011;55037;52.354;4.992;2022-08-19T10:21:53;12.00;;;5.85;;
68216;SDS011;55037;52.354;4.992;2022-08-19T10:24:26;12.20;;;6.00;;
68216;SDS011;55037;52.354;4.992;2022-08-19T10:26:55;11.82;;;6.32;;
68216;SDS011;55037;52.354;4.992;2022-08-19T10:29:26;12.98;;;6.38;;
68216;SDS011;55037;52.354;4.992;2022-08-19T10:31:59;10.97;;;5.67;;
68216;SDS011;55037;52.354;4.992;2022-08-19T10:34:29;11.98;;;6.20;;
68216;SDS011;55037;52.354;4.992;2022-08-19T10:36:57;11.20;;;6.28;;
68216;SDS011;55037;52.354;4.992;2022-08-19T10:39:31;12.13;;;6.33;;
68216;SDS011;55037;52.354;4.992;2022-08-19T10:42:09;12.30;;;6.63;;
68216;SDS011;55037;52.354;4.992;2022-08-19T10:44:38;10.82;;;6.03;;
68216;SDS011;55037;52.354;4.992;2022-08-19T10:47:06;10.43;;;5.65;;
68216;SDS011;55037;52.354;4.992;2022-08-19T10:49:50;12.65;;;5.38;;
68216;SDS011;55037;52.354;4.992;2022-08-19T10:52:42;11.27;;;5.53;;
68216;SDS011;55037;52.354;4.992;2022-08-19T10:55:20;11.38;;;5.53;;
68216;SDS011;55037;52.354;4.992;2022-08-19T10:58:15;9.63;;;5.50;;
68216;SDS011;55037;52.354;4.992;2022-08-19T11:00:55;11.40;;;6.00;;
68216;SDS011;55037;52.354;4.992;2022-08-19T11:03:24;10.88;;;5.82;;
68216;SDS011;55037;52.354;4.992;2022-08-19T11:06:00;10.63;;;5.72;;
68216;SDS011;55037;52.354;4.992;2022-08-19T11:08:30;10.57;;;5.07;;
68216;SDS011;55037;52.354;4.992;2022-08-19T11:10:59;10.75;;;5.57;;
68216;SDS011;55037;52.354;4.992;2022-08-19T11:13:29;11.88;;;5.50;;
68216;SDS011;55037;52.354;4.992;2022-08-19T11:16:02;12.15;;;5.20;;
68216;SDS011;55037;52.354;4.992;2022-08-19T11:18:43;10.45;;;5.13;;
68216;SDS011;55037;52.354;4.992;2022-08-19T11:21:15;7.75;;;4.20;;
68216;SDS011;55037;52.354;4.992;2022-08-19T11:23:46;8.32;;;4.00;;
68216;SDS011;55037;52.354;4.992;2022-08-19T11:26:15;9.50;;;4.00;;
68216;SDS011;55037;52.354;4.992;2022-08-19T11:28:43;10.18;;;4.10;;
68216;SDS011;55037;52.354;4.992;2022-08-19T11:31:12;7.25;;;3.60;;
68216;SDS011;55037;52.354;4.992;2022-08-19T11:33:40;7.55;;;3.78;;
68216;SDS011;55037;52.354;4.992;2022-08-19T11:36:13;6.68;;;3.20;;
68216;SDS011;55037;52.354;4.992;2022-08-19T11:38:41;8.27;;;3.20;;
68216;SDS011;55037;52.354;4.992;2022-08-19T11:41:09;8.90;;;2.88;;
68216;SDS011;55037;52.354;4.992;2022-08-19T11:43:36;7.15;;;3.60;;
68216;SDS011;55037;52.354;4.992;2022-08-19T11:46:05;9.37;;;3.50;;
68216;SDS011;55037;52.354;4.992;2022-08-19T11:48:34;7.32;;;3.50;;
68216;SDS011;55037;52.354;4.992;2022-08-19T11:51:06;6.53;;;3.00;;
68216;SDS011;55037;52.354;4.992;2022-08-19T11:53:36;8.88;;;3.65;;
68216;SDS011;55037;52.354;4.992;2022-08-19T11:56:04;8.65;;;3.85;;
68216;SDS011;55037;52.354;4.992;2022-08-19T11:58:32;9.52;;;3.60;;
68216;SDS011;55037;52.354;4.992;2022-08-19T12:01:00;7.47;;;3.72;;
68216;SDS011;55037;52.354;4.992;2022-08-19T12:03:28;6.82;;;3.90;;
68216;SDS011;55037;52.354;4.992;2022-08-19T12:05:55;8.43;;;4.00;;
68216;SDS011;55037;52.354;4.992;2022-08-19T12:08:23;7.00;;;3.10;;
68216;SDS011;55037;52.354;4.992;2022-08-19T12:10:50;9.23;;;3.85;;
68216;SDS011;55037;52.354;4.992;2022-08-19T12:13:17;7.15;;;3.78;;
68216;SDS011;55037;52.354;4.992;2022-08-19T12:15:45;6.88;;;3.35;;
68216;SDS011;55037;52.354;4.992;2022-08-19T12:18:13;8.13;;;3.10;;
68216;SDS011;55037;52.354;4.992;2022-08-19T12:20:42;6.15;;;2.90;;
68216;SDS011;55037;52.354;4.992;2022-08-19T12:23:09;6.55;;;3.15;;
68216;SDS011;55037;52.354;4.992;2022-08-19T12:25:37;5.88;;;2.95;;
68216;SDS011;55037;52.354;4.992;2022-08-19T12:28:22;5.57;;;3.03;;
68216;SDS011;55037;52.354;4.992;2022-08-19T12:30:50;7.40;;;3.13;;
68216;SDS011;55037;52.354;4.992;2022-08-19T12:33:18;5.30;;;2.70;;
68216;SDS011;55037;52.354;4.992;2022-08-19T12:35:50;6.68;;;2.72;;
68216;SDS011;55037;52.354;4.992;2022-08-19T12:38:18;5.50;;;2.63;;
68216;SDS011;55037;52.354;4.992;2022-08-19T12:40:46;4.77;;;2.10;;
68216;SDS011;55037;52.354;4.992;2022-08-19T12:43:15;5.07;;;2.20;;
68216;SDS011;55037;52.354;4.992;2022-08-19T12:45:42;5.25;;;2.20;;
68216;SDS011;55037;52.354;4.992;2022-08-19T12:48:12;5.05;;;2.10;;
68216;SDS011;55037;52.354;4.992;2022-08-19T12:51:01;3.67;;;1.90;;
68216;SDS011;55037;52.354;4.992;2022-08-19T12:53:33;4.80;;;2.10;;
68216;SDS011;55037;52.354;4.992;2022-08-19T12:56:05;4.20;;;1.95;;
68216;SDS011;55037;52.354;4.992;2022-08-19T12:58:38;4.18;;;1.75;;
68216;SDS011;55037;52.354;4.992;2022-08-19T13:01:15;3.90;;;1.90;;
68216;SDS011;55037;52.354;4.992;2022-08-19T13:03:47;4.13;;;1.70;;
68216;SDS011;55037;52.354;4.992;2022-08-19T13:06:16;5.43;;;1.90;;
68216;SDS011;55037;52.354;4.992;2022-08-19T13:08:46;4.80;;;2.25;;
68216;SDS011;55037;52.354;4.992;2022-08-19T13:11:14;4.20;;;1.97;;
68216;SDS011;55037;52.354;4.992;2022-08-19T13:13:45;4.70;;;1.67;;
68216;SDS011;55037;52.354;4.992;2022-08-19T13:16:18;3.35;;;1.92;;
68216;SDS011;55037;52.354;4.992;2022-08-19T13:18:46;4.22;;;2.10;;
68216;SDS011;55037;52.354;4.992;2022-08-19T13:21:14;3.00;;;2.40;;
68216;SDS011;55037;52.354;4.992;2022-08-19T13:23:42;2.95;;;2.00;;
68216;SDS011;55037;52.354;4.992;2022-08-19T13:26:09;3.53;;;2.00;;
68216;SDS011;55037;52.354;4.992;2022-08-19T13:28:38;4.00;;;2.00;;
68216;SDS011;55037;52.354;4.992;2022-08-19T13:31:25;4.03;;;2.08;;
68216;SDS011;55037;52.354;4.992;2022-08-19T13:34:14;3.63;;;2.00;;
68216;SDS011;55037;52.354;4.992;2022-08-19T13:36:42;3.45;;;1.80;;
68216;SDS011;55037;52.354;4.992;2022-08-19T13:39:10;2.97;;;1.70;;
68216;SDS011;55037;52.354;4.992;2022-08-19T13:41:40;3.70;;;1.60;;
68216;SDS011;55037;52.354;4.992;2022-08-19T13:44:14;3.55;;;1.75;;
68216;SDS011;55037;52.354;4.992;2022-08-19T13:46:45;2.92;;;1.80;;
68216;SDS011;55037;52.354;4.992;2022-08-19T13:49:19;4.15;;;1.92;;
68216;SDS011;55037;52.354;4.992;2022-08-19T13:51:47;3.25;;;1.90;;
68216;SDS011;55037;52.354;4.992;2022-08-19T13:54:14;4.00;;;1.90;;
68216;SDS011;55037;52.354;4.992;2022-08-19T13:56:42;3.25;;;2.00;;
68216;SDS011;55037;52.354;4.992;2022-08-19T13:59:11;3.15;;;1.83;;
68216;SDS011;55037;52.354;4.992;2022-08-19T14:01:39;3.30;;;2.00;;
68216;SDS011;55037;52.354;4.992;2022-08-19T14:04:07;3.55;;;1.90;;
68216;SDS011;55037;52.354;4.992;2022-08-19T14:06:35;3.65;;;1.80;;
68216;SDS011;55037;52.354;4.992;2022-08-19T14:09:02;2.97;;;1.65;;
68216;SDS011;55037;52.354;4.992;2022-08-19T14:11:29;3.88;;;1.48;;
68216;SDS011;55037;52.354;4.992;2022-08-19T14:13:57;2.97;;;1.50;;
68216;SDS011;55037;52.354;4.992;2022-08-19T14:16:24;3.45;;;1.80;;
68216;SDS011;55037;52.354;4.992;2022-08-19T14:18:51;2.80;;;1.60;;
68216;SDS011;55037;52.354;4.992;2022-08-19T14:21:20;3.30;;;1.50;;
68216;SDS011;55037;52.354;4.992;2022-08-19T14:23:50;2.90;;;1.75;;
68216;SDS011;55037;52.354;4.992;2022-08-19T14:26:18;2.65;;;1.50;;
68216;SDS011;55037;52.354;4.992;2022-08-19T14:28:48;3.00;;;1.80;;
68216;SDS011;55037;52.354;4.992;2022-08-19T14:31:16;3.25;;;1.73;;
68216;SDS011;55037;52.354;4.992;2022-08-19T14:33:46;3.20;;;1.67;;
68216;SDS011;55037;52.354;4.992;2022-08-19T14:36:14;3.20;;;1.80;;
68216;SDS011;55037;52.354;4.992;2022-08-19T14:38:41;3.00;;;1.70;;
68216;SDS011;55037;52.354;4.992;2022-08-19T14:41:13;2.90;;;1.75;;
68216;SDS011;55037;52.354;4.992;2022-08-19T14:43:44;2.97;;;1.53;;
68216;SDS011;55037;52.354;4.992;2022-08-19T14:46:13;3.97;;;2.17;;
68216;SDS011;55037;52.354;4.992;2022-08-19T14:48:42;4.32;;;2.10;;
68216;SDS011;55037;52.354;4.992;2022-08-19T14:51:10;3.50;;;1.80;;
68216;SDS011;55037;52.354;4.992;2022-08-19T14:53:37;3.10;;;1.90;;
68216;SDS011;55037;52.354;4.992;2022-08-19T14:56:11;3.92;;;2.10;;
68216;SDS011;55037;52.354;4.992;2022-08-19T14:58:41;3.38;;;2.10;;
68216;SDS011;55037;52.354;4.992;2022-08-19T15:01:10;3.65;;;2.05;;
68216;SDS011;55037;52.354;4.992;2022-08-19T15:03:39;3.92;;;2.20;;